createdAt,value
2023-03-19T00:01:21.790Z,53.54
2023-03-19T00:03:48.294Z,53.48
2023-03-19T00:06:14.689Z,53.72
2023-03-19T00:08:42.066Z,53.33
2023-03-19T00:11:08.433Z,53.65
2023-03-19T00:13:34.743Z,53.71
2023-03-19T00:16:01.362Z,53.68
2023-03-19T00:18:27.692Z,54.28
2023-03-19T00:20:54.009Z,54.05
2023-03-19T00:23:20.328Z,54.07
2023-03-19T00:25:46.692Z,54.18
2023-03-19T00:28:13.158Z,54.32
2023-03-19T00:30:39.508Z,54.24
2023-03-19T00:33:05.923Z,53.87
2023-03-19T00:35:32.968Z,54.17
2023-03-19T00:37:59.743Z,54.14
2023-03-19T00:40:26.169Z,54.40
2023-03-19T00:42:52.514Z,55.00
2023-03-19T00:45:18.827Z,54.39
2023-03-19T00:47:45.198Z,54.37
2023-03-19T00:50:11.745Z,54.53
2023-03-19T00:52:38.074Z,54.63
2023-03-19T00:55:04.374Z,55.01
2023-03-19T00:57:30.700Z,55.01
2023-03-19T00:59:57.039Z,54.61
2023-03-19T01:02:23.356Z,54.63
2023-03-19T01:04:49.752Z,54.78
2023-03-19T01:07:16.333Z,54.91
2023-03-19T01:09:42.887Z,54.22
2023-03-19T01:12:09.194Z,54.37
2023-03-19T01:14:35.510Z,54.57
2023-03-19T01:17:01.838Z,54.52
2023-03-19T01:19:28.175Z,54.35
2023-03-19T01:21:54.505Z,54.79
2023-03-19T01:24:20.822Z,54.67
2023-03-19T01:26:47.161Z,54.76
2023-03-19T01:29:13.477Z,54.68
2023-03-19T01:31:39.786Z,54.69
2023-03-19T01:34:06.599Z,54.80
2023-03-19T01:36:33.548Z,54.80
2023-03-19T01:39:00.034Z,55.58
2023-03-19T01:41:26.592Z,55.27
2023-03-19T01:43:52.911Z,54.89
2023-03-19T01:46:19.269Z,55.06
2023-03-19T01:48:46.121Z,55.13
2023-03-19T01:51:12.528Z,54.98
2023-03-19T01:53:38.909Z,54.65
2023-03-19T01:56:05.282Z,54.69
2023-03-19T01:58:31.708Z,54.96
2023-03-19T02:00:58.045Z,54.60
2023-03-19T02:03:24.373Z,55.00
2023-03-19T02:05:50.687Z,55.14
2023-03-19T02:08:17.022Z,54.85
2023-03-19T02:10:43.351Z,54.87
2023-03-19T02:13:09.781Z,55.07
2023-03-19T02:15:36.210Z,54.63
2023-03-19T02:18:02.535Z,55.18
2023-03-19T02:20:28.874Z,54.72
2023-03-19T02:22:55.399Z,54.66
2023-03-19T02:25:21.715Z,54.58
2023-03-19T02:27:48.029Z,54.47
2023-03-19T02:30:14.341Z,54.36
2023-03-19T02:32:40.944Z,54.62
2023-03-19T02:35:07.267Z,54.69
2023-03-19T02:37:33.867Z,54.06
2023-03-19T02:40:00.311Z,54.46
2023-03-19T02:42:26.667Z,54.55
2023-03-19T02:44:53.004Z,54.16
2023-03-19T02:47:19.414Z,54.27
2023-03-19T02:49:46.194Z,54.00
2023-03-19T02:52:12.542Z,53.70
2023-03-19T02:54:38.849Z,54.12
2023-03-19T02:57:05.547Z,53.76
2023-03-19T02:59:31.941Z,53.77
2023-03-19T03:01:58.398Z,53.82
2023-03-19T03:04:25.058Z,53.75
2023-03-19T03:06:51.373Z,53.97
2023-03-19T03:09:18.395Z,53.97
2023-03-19T03:11:44.758Z,54.21
2023-03-19T03:14:11.255Z,54.03
2023-03-19T03:16:38.195Z,53.86
2023-03-19T03:19:04.605Z,54.41
2023-03-19T03:21:30.934Z,54.59
2023-03-19T03:23:57.575Z,54.23
2023-03-19T03:26:23.930Z,54.53
2023-03-19T03:28:50.278Z,54.75
2023-03-19T03:31:16.953Z,55.67
2023-03-19T03:33:43.492Z,55.76
2023-03-19T03:36:09.828Z,55.86
2023-03-19T03:38:36.180Z,56.33
2023-03-19T03:41:02.515Z,56.27
2023-03-19T03:43:28.935Z,56.08
2023-03-19T03:45:55.279Z,55.70
2023-03-19T03:48:22.037Z,55.33
2023-03-19T03:50:48.362Z,55.62
2023-03-19T03:53:15.494Z,55.36
2023-03-19T03:55:41.807Z,55.57
2023-03-19T03:58:08.125Z,55.43
2023-03-19T04:00:34.705Z,56.37
2023-03-19T04:03:01.291Z,55.85
2023-03-19T04:05:27.640Z,55.80
2023-03-19T04:07:54.176Z,55.64
2023-03-19T04:10:20.506Z,55.96
2023-03-19T04:12:46.817Z,55.91
2023-03-19T04:15:13.576Z,56.06
2023-03-19T04:17:40.578Z,56.09
2023-03-19T04:20:07.729Z,55.53
2023-03-19T04:22:34.078Z,56.10
2023-03-19T04:25:00.399Z,56.55
2023-03-19T04:27:26.774Z,56.25
2023-03-19T04:29:53.122Z,55.81
2023-03-19T04:32:19.523Z,55.59
2023-03-19T04:34:45.838Z,55.56
2023-03-19T04:37:12.562Z,55.73
2023-03-19T04:39:38.890Z,55.43
2023-03-19T04:42:06.141Z,55.76
2023-03-19T04:44:32.443Z,55.62
2023-03-19T04:46:58.898Z,55.56
2023-03-19T04:49:26.079Z,55.44
2023-03-19T04:51:52.384Z,55.26
2023-03-19T04:54:18.934Z,55.00
2023-03-19T04:56:45.474Z,55.29
2023-03-19T04:59:11.846Z,55.10
2023-03-19T05:01:38.251Z,55.59
2023-03-19T05:04:04.835Z,55.40
2023-03-19T05:06:32.268Z,55.50
2023-03-19T05:08:58.615Z,55.63
2023-03-19T05:11:25.071Z,55.65
2023-03-19T05:13:51.483Z,55.83
2023-03-19T05:16:17.823Z,56.20
2023-03-19T05:18:44.831Z,56.50
2023-03-19T05:21:11.546Z,56.92
2023-03-19T05:23:37.863Z,56.49
2023-03-19T05:26:04.200Z,56.38
2023-03-19T05:28:30.524Z,56.40
2023-03-19T05:30:56.905Z,56.08
2023-03-19T05:33:23.262Z,55.99
2023-03-19T05:35:49.579Z,55.73
2023-03-19T05:38:16.844Z,55.56
2023-03-19T05:40:43.228Z,55.64
2023-03-19T05:43:09.631Z,55.37
2023-03-19T05:45:36.253Z,55.63
2023-03-19T05:48:03.197Z,55.17
2023-03-19T05:50:29.527Z,55.20
2023-03-19T05:52:56.035Z,54.70
2023-03-19T05:55:22.369Z,54.51
2023-03-19T05:57:48.888Z,54.69
2023-03-19T06:00:16.122Z,54.51
2023-03-19T06:02:43.207Z,54.10
2023-03-19T06:05:09.542Z,54.45
2023-03-19T06:07:36.380Z,53.74
2023-03-19T06:10:02.696Z,53.44
2023-03-19T06:12:29.014Z,53.17
2023-03-19T06:14:55.379Z,53.59
2023-03-19T06:17:21.684Z,52.74
2023-03-19T06:19:48.101Z,53.11
2023-03-19T06:22:14.473Z,52.57
2023-03-19T06:24:41.056Z,52.34
2023-03-19T06:27:07.407Z,52.55
2023-03-19T06:29:33.759Z,52.59
2023-03-19T06:32:00.568Z,52.64
2023-03-19T06:34:26.891Z,52.22
2023-03-19T06:36:53.967Z,51.81
2023-03-19T06:39:20.287Z,52.33
2023-03-19T06:41:46.698Z,51.56
2023-03-19T06:44:13.013Z,51.39
2023-03-19T06:46:39.354Z,51.06
2023-03-19T06:49:05.704Z,50.76
2023-03-19T06:51:32.057Z,50.82
2023-03-19T06:53:58.727Z,51.20
2023-03-19T06:56:25.149Z,50.27
2023-03-19T06:58:51.477Z,50.42
2023-03-19T07:01:17.812Z,50.23
2023-03-19T07:03:44.261Z,49.81
2023-03-19T07:06:10.807Z,49.72
2023-03-19T07:08:37.134Z,49.60
2023-03-19T07:11:04.034Z,48.96
2023-03-19T07:13:30.727Z,49.31
2023-03-19T07:15:57.076Z,48.86
2023-03-19T07:18:23.389Z,48.93
2023-03-19T07:20:49.722Z,48.40
2023-03-19T07:23:16.036Z,48.44
2023-03-19T07:25:42.363Z,48.40
2023-03-19T07:28:08.678Z,48.12
2023-03-19T07:30:36.022Z,48.42
2023-03-19T07:33:02.562Z,48.19
2023-03-19T07:35:29.054Z,48.09
2023-03-19T07:37:55.738Z,47.41
2023-03-19T07:40:22.060Z,47.55
2023-03-19T07:42:48.383Z,47.33
2023-03-19T07:45:14.778Z,47.52
2023-03-19T07:47:41.187Z,46.97
2023-03-19T07:50:07.497Z,47.29
2023-03-19T07:52:33.818Z,46.41
2023-03-19T07:55:00.275Z,46.73
2023-03-19T07:57:27.263Z,46.17
2023-03-19T07:59:54.110Z,45.75
2023-03-19T08:02:22.908Z,46.03
2023-03-19T08:04:50.067Z,46.16
2023-03-19T08:07:17.006Z,46.00
2023-03-19T08:09:43.663Z,45.58
2023-03-19T08:12:10.006Z,45.02
2023-03-19T08:14:36.362Z,45.76
2023-03-19T08:17:02.730Z,45.95
2023-03-19T08:19:29.114Z,45.29
2023-03-19T08:21:56.465Z,44.57
2023-03-19T08:24:23.025Z,44.13
2023-03-19T08:26:49.347Z,43.80
2023-03-19T08:29:18.516Z,44.27
2023-03-19T08:31:46.539Z,44.59
2023-03-19T08:34:12.937Z,44.65
2023-03-19T08:36:39.270Z,44.57
2023-03-19T08:39:05.590Z,44.40
2023-03-19T08:41:31.909Z,44.28
2023-03-19T08:43:58.259Z,44.06
2023-03-19T08:46:24.684Z,44.65
2023-03-19T08:48:51.047Z,44.28
2023-03-19T08:51:17.359Z,43.66
2023-03-19T08:53:43.660Z,43.44
2023-03-19T08:56:10.022Z,43.35
2023-03-19T08:58:36.367Z,43.32
2023-03-19T09:01:03.320Z,43.03
2023-03-19T09:03:29.648Z,42.79
2023-03-19T09:05:56.007Z,42.33
2023-03-19T09:08:22.386Z,42.43
2023-03-19T09:10:50.350Z,42.14
2023-03-19T09:13:17.761Z,42.64
2023-03-19T09:15:44.108Z,41.82
2023-03-19T09:18:10.687Z,42.11
2023-03-19T09:20:37.011Z,42.18
2023-03-19T09:23:03.348Z,42.21
2023-03-19T09:25:29.666Z,42.92
2023-03-19T09:27:56.289Z,42.39
2023-03-19T09:30:22.658Z,42.07
2023-03-19T09:32:49.057Z,41.96
2023-03-19T09:35:15.976Z,42.71
2023-03-19T09:37:42.321Z,41.86
2023-03-19T09:40:08.752Z,42.98
2023-03-19T09:42:35.093Z,42.58
2023-03-19T09:45:01.974Z,42.44
2023-03-19T09:47:28.888Z,41.87
2023-03-19T09:49:55.342Z,42.27
2023-03-19T09:52:22.410Z,42.17
2023-03-19T09:54:48.730Z,41.46
2023-03-19T09:57:15.199Z,40.84
2023-03-19T09:59:41.530Z,41.95
2023-03-19T10:02:08.081Z,41.85
2023-03-19T10:04:34.555Z,42.30
2023-03-19T10:07:01.164Z,41.73
2023-03-19T10:09:27.618Z,43.34
2023-03-19T10:11:56.340Z,42.04
2023-03-19T10:15:18.024Z,41.56
2023-03-19T10:17:44.403Z,41.56
2023-03-19T10:20:11.192Z,40.71
2023-03-19T10:22:37.535Z,40.70
2023-03-19T10:25:03.922Z,40.80
2023-03-19T10:27:30.310Z,40.64
2023-03-19T10:29:56.660Z,41.56
2023-03-19T10:32:23.273Z,40.84
2023-03-19T10:34:50.500Z,40.30
2023-03-19T10:37:16.925Z,41.12
2023-03-19T10:39:43.258Z,41.22
2023-03-19T10:42:09.689Z,42.04
2023-03-19T10:44:36.073Z,41.56
2023-03-19T10:47:02.413Z,41.93
2023-03-19T10:49:28.848Z,41.25
2023-03-19T10:51:55.270Z,41.61
2023-03-19T10:54:21.664Z,41.45
2023-03-19T10:56:48.067Z,41.52
2023-03-19T10:59:14.409Z,41.32
2023-03-19T11:01:40.844Z,41.56
2023-03-19T11:04:07.276Z,41.84
2023-03-19T11:06:33.714Z,41.16
2023-03-19T11:09:00.043Z,41.12
2023-03-19T11:11:26.574Z,41.31
2023-03-19T11:13:53.021Z,40.71
2023-03-19T11:16:19.387Z,40.21
2023-03-19T11:18:45.835Z,40.22
2023-03-19T11:21:12.426Z,40.91
2023-03-19T11:23:38.766Z,41.25
2023-03-19T11:26:05.274Z,40.88
2023-03-19T11:28:33.974Z,41.40
2023-03-19T11:31:00.448Z,40.70
2023-03-19T11:33:27.180Z,39.96
2023-03-19T11:35:53.503Z,40.79
2023-03-19T11:38:19.867Z,41.22
2023-03-19T11:40:46.528Z,40.60
2023-03-19T11:43:12.853Z,40.46
2023-03-19T11:45:42.001Z,40.36
2023-03-19T11:48:08.528Z,40.15
2023-03-19T11:50:34.902Z,40.50
2023-03-19T11:53:01.250Z,39.86
2023-03-19T11:55:27.578Z,39.58
2023-03-19T11:57:54.778Z,39.72
2023-03-19T12:00:21.095Z,39.21
2023-03-19T12:02:47.461Z,39.86
2023-03-19T12:05:14.021Z,40.02
2023-03-19T12:07:40.349Z,39.44
2023-03-19T12:10:06.686Z,39.82
2023-03-19T12:12:33.025Z,39.98
2023-03-19T12:14:59.339Z,39.75
2023-03-19T12:17:26.007Z,39.73
2023-03-19T12:22:33.135Z,40.32
2023-03-19T12:25:01.411Z,40.74
2023-03-19T12:27:28.144Z,40.14
2023-03-19T12:29:54.548Z,40.17
2023-03-19T12:32:21.580Z,40.63
2023-03-19T12:34:48.178Z,40.47
2023-03-19T12:37:14.484Z,40.62
2023-03-19T12:39:44.501Z,40.71
2023-03-19T12:42:13.554Z,40.44
2023-03-19T12:44:40.038Z,40.83
2023-03-19T12:47:08.516Z,41.02
2023-03-19T12:49:36.412Z,40.88
2023-03-19T12:52:02.802Z,40.60
2023-03-19T12:54:29.132Z,40.97
2023-03-19T12:56:55.787Z,41.12
2023-03-19T12:59:22.147Z,40.86
2023-03-19T13:01:48.697Z,41.08
2023-03-19T13:04:15.124Z,40.91
2023-03-19T13:06:41.635Z,40.55
2023-03-19T13:09:08.023Z,40.41
2023-03-19T13:11:34.383Z,41.86
2023-03-19T13:14:01.641Z,40.85
2023-03-19T13:16:28.046Z,41.28
2023-03-19T13:18:54.391Z,41.25
2023-03-19T13:21:20.750Z,41.89
2023-03-19T13:23:47.422Z,41.47
2023-03-19T13:26:13.829Z,41.03
2023-03-19T13:28:40.166Z,40.94
2023-03-19T13:31:06.808Z,41.27
2023-03-19T13:33:33.195Z,41.44
2023-03-19T13:35:59.563Z,41.37
2023-03-19T13:38:25.978Z,41.73
2023-03-19T13:40:52.352Z,40.87
2023-03-19T13:43:27.705Z,41.15
2023-03-19T13:45:54.868Z,40.78
2023-03-19T13:48:24.502Z,41.04
2023-03-19T13:50:52.021Z,41.35
2023-03-19T13:53:20.344Z,41.01
2023-03-19T13:55:46.712Z,40.80
2023-03-19T13:58:16.284Z,41.75
2023-03-19T14:00:45.705Z,41.27
2023-03-19T14:03:12.083Z,41.50
2023-03-19T14:05:38.402Z,41.65
2023-03-19T14:08:04.714Z,42.03
2023-03-19T14:10:31.297Z,41.51
2023-03-19T14:12:57.630Z,41.28
2023-03-19T14:15:23.947Z,41.81
2023-03-19T14:17:50.366Z,41.43
2023-03-19T14:20:21.034Z,42.22
2023-03-19T14:22:50.895Z,42.53
2023-03-19T14:25:17.949Z,42.80
2023-03-19T14:27:44.357Z,42.67
2023-03-19T14:30:10.758Z,42.08
2023-03-19T14:32:41.051Z,42.15
2023-03-19T14:35:07.564Z,42.29
2023-03-19T14:37:36.133Z,42.80
2023-03-19T14:40:02.477Z,42.82
2023-03-19T14:42:28.782Z,42.62
2023-03-19T14:44:55.083Z,42.84
2023-03-19T14:47:21.426Z,42.47
2023-03-19T14:49:47.747Z,42.88
2023-03-19T14:52:14.122Z,43.26
2023-03-19T14:54:40.530Z,43.67
2023-03-19T14:57:06.936Z,43.17
2023-03-19T14:59:33.278Z,43.08
2023-03-19T15:01:59.646Z,43.29
2023-03-19T15:04:26.196Z,42.92
2023-03-19T15:06:52.620Z,43.08
2023-03-19T15:09:19.412Z,43.00
2023-03-19T15:11:46.055Z,43.31
2023-03-19T15:14:12.452Z,43.00
2023-03-19T15:16:38.901Z,43.01
2023-03-19T15:19:05.242Z,43.08
2023-03-19T15:21:31.715Z,43.36
2023-03-19T15:23:58.249Z,43.24
2023-03-19T15:26:24.652Z,43.21
2023-03-19T15:28:53.785Z,43.05
2023-03-19T15:31:33.941Z,43.25
2023-03-19T15:34:07.381Z,43.34
2023-03-19T15:36:35.463Z,43.95
2023-03-19T15:39:01.781Z,44.74
2023-03-19T15:41:28.143Z,45.69
2023-03-19T15:43:54.572Z,44.70
2023-03-19T15:46:21.147Z,44.63
2023-03-19T15:48:47.558Z,45.27
2023-03-19T15:51:13.915Z,44.12
2023-03-19T15:53:40.253Z,44.77
2023-03-19T15:56:06.569Z,45.37
2023-03-19T15:58:32.930Z,46.93
2023-03-19T16:00:59.401Z,48.68
2023-03-19T16:03:26.237Z,51.70
2023-03-19T16:05:52.641Z,57.48
2023-03-19T16:08:18.965Z,59.39
2023-03-19T16:10:47.482Z,61.60
2023-03-19T16:13:13.811Z,63.19
2023-03-19T16:15:40.143Z,63.74
2023-03-19T16:18:10.475Z,64.50
2023-03-19T16:20:36.966Z,64.74
2023-03-19T16:23:06.477Z,65.27
2023-03-19T16:25:33.005Z,66.50
2023-03-19T16:27:59.476Z,66.42
2023-03-19T16:30:25.792Z,67.94
2023-03-19T16:32:52.133Z,68.44
2023-03-19T16:35:21.607Z,68.79
2023-03-19T16:37:48.907Z,70.53
2023-03-19T16:40:19.781Z,70.94
2023-03-19T16:42:46.163Z,71.39
2023-03-19T16:45:12.994Z,71.61
2023-03-19T16:47:39.300Z,71.75
2023-03-19T16:50:05.890Z,72.29
2023-03-19T16:52:32.283Z,72.26
2023-03-19T16:54:58.614Z,72.46
2023-03-19T16:57:24.954Z,72.56
2023-03-19T16:59:51.442Z,74.42
2023-03-19T17:02:17.796Z,75.36
2023-03-19T17:04:44.258Z,75.73
2023-03-19T17:07:10.648Z,76.41
2023-03-19T17:09:36.985Z,77.75
2023-03-19T17:12:03.323Z,78.11
2023-03-19T17:14:29.664Z,79.04
2023-03-19T17:16:56.996Z,79.80
2023-03-19T17:19:23.386Z,79.40
2023-03-19T17:21:49.700Z,79.58
2023-03-19T17:24:16.697Z,80.52
2023-03-19T17:26:43.329Z,80.89
2023-03-19T17:29:09.644Z,81.60
2023-03-19T17:31:36.040Z,80.90
2023-03-19T17:34:02.365Z,79.73
2023-03-19T17:36:28.735Z,79.51
2023-03-19T17:38:55.471Z,80.32
2023-03-19T17:41:21.876Z,80.25
2023-03-19T17:43:48.239Z,81.41
2023-03-19T17:46:14.663Z,81.52
2023-03-19T17:48:41.014Z,81.31
2023-03-19T17:51:07.353Z,80.58
2023-03-19T17:53:33.674Z,80.42
2023-03-19T17:56:00.110Z,80.49
2023-03-19T17:58:26.507Z,81.32
2023-03-19T18:00:53.062Z,82.36
2023-03-19T18:03:19.457Z,80.89
2023-03-19T18:05:45.791Z,81.34
2023-03-19T18:08:12.249Z,81.65
2023-03-19T18:10:38.626Z,82.81
2023-03-19T18:15:36.594Z,82.23
2023-03-19T18:18:04.462Z,81.37
2023-03-19T18:20:30.829Z,83.53
2023-03-19T18:22:57.180Z,86.15
2023-03-19T18:25:23.521Z,85.75
2023-03-19T18:27:49.836Z,88.34
2023-03-19T18:30:16.237Z,89.36
2023-03-19T18:32:45.616Z,91.18
2023-03-19T18:35:11.999Z,92.75
2023-03-19T18:37:38.330Z,94.51
2023-03-19T18:40:04.874Z,94.62
2023-03-19T18:42:31.220Z,94.89
2023-03-19T18:44:57.542Z,94.95
2023-03-19T18:47:23.853Z,94.92
2023-03-19T18:49:50.478Z,93.02
2023-03-19T18:52:19.473Z,92.91
2023-03-19T18:54:46.028Z,92.54
2023-03-19T18:57:12.358Z,92.07
2023-03-19T18:59:38.687Z,95.46
2023-03-19T19:02:05.000Z,97.16
2023-03-19T19:04:31.582Z,95.78
2023-03-19T19:06:58.110Z,98.32
2023-03-19T19:09:26.498Z,96.29
2023-03-19T19:11:54.519Z,95.51
2023-03-19T19:14:21.979Z,95.91
2023-03-19T19:16:48.402Z,94.56
2023-03-19T19:19:15.129Z,94.69
2023-03-19T19:21:41.455Z,94.95
2023-03-19T19:24:07.846Z,96.86
2023-03-19T19:26:34.153Z,96.88
2023-03-19T19:29:00.768Z,95.44
2023-03-19T19:31:27.124Z,95.44
2023-03-19T19:33:53.569Z,95.07
2023-03-19T19:36:19.936Z,94.63
2023-03-19T19:38:46.388Z,94.16
2023-03-19T19:41:12.699Z,95.78
2023-03-19T19:43:39.029Z,97.19
2023-03-19T19:46:05.405Z,96.88
2023-03-19T19:48:31.846Z,96.25
2023-03-19T19:50:58.179Z,95.64
2023-03-19T19:53:29.617Z,97.59
2023-03-19T19:55:56.038Z,98.44
2023-03-19T19:58:25.446Z,100.00
2023-03-19T20:01:03.001Z,99.63
2023-03-19T20:03:35.497Z,100.00
2023-03-19T20:06:01.972Z,100.00
2023-03-19T20:08:28.968Z,100.00
2023-03-19T20:10:55.339Z,100.00
2023-03-19T20:13:22.651Z,100.00
2023-03-19T20:15:49.069Z,100.00
2023-03-19T20:18:16.832Z,100.00
2023-03-19T20:20:43.497Z,100.00
2023-03-19T20:23:10.652Z,100.00
2023-03-19T20:25:38.058Z,100.00
2023-03-19T20:28:04.583Z,100.00
2023-03-19T20:30:31.050Z,100.00
2023-03-19T20:33:03.527Z,100.00
2023-03-19T20:35:30.030Z,100.00
2023-03-19T20:37:56.440Z,100.00
2023-03-19T20:40:22.772Z,100.00
2023-03-19T20:42:49.461Z,100.00
2023-03-19T20:45:15.794Z,100.00
2023-03-19T20:47:42.124Z,100.00
2023-03-19T20:50:11.378Z,100.00
2023-03-19T20:52:37.820Z,100.00
2023-03-19T20:55:04.160Z,100.00
2023-03-19T20:57:30.850Z,100.00
2023-03-19T20:59:57.259Z,100.00
2023-03-19T21:02:24.757Z,100.00
2023-03-19T21:04:51.767Z,100.00
2023-03-19T21:07:18.267Z,100.00
2023-03-19T21:09:44.636Z,100.00
2023-03-19T21:12:10.986Z,100.00
2023-03-19T21:14:37.569Z,100.00
2023-03-19T21:17:03.883Z,100.00
2023-03-19T21:19:30.190Z,100.00
2023-03-19T21:21:57.305Z,100.00
2023-03-19T21:24:24.770Z,100.00
2023-03-19T21:26:51.162Z,100.00
2023-03-19T21:29:17.490Z,100.00
2023-03-19T21:31:43.893Z,100.00
2023-03-19T21:34:10.237Z,100.00
2023-03-19T21:36:36.553Z,100.00
2023-03-19T21:39:02.907Z,100.00
2023-03-19T21:41:30.421Z,100.00
2023-03-19T21:43:57.395Z,100.00
2023-03-19T22:00:54.060Z,100.00
2023-03-19T22:03:20.428Z,100.00
2023-03-19T22:05:46.865Z,100.00
2023-03-19T22:08:16.017Z,100.00
2023-03-19T22:10:42.550Z,100.00
2023-03-19T22:13:10.239Z,99.64
2023-03-19T22:15:37.588Z,100.00
2023-03-19T22:18:04.072Z,99.32
2023-03-19T22:20:30.393Z,98.53
2023-03-19T22:22:57.645Z,98.13
2023-03-19T22:25:23.974Z,97.91
2023-03-19T22:27:50.356Z,97.01
2023-03-19T22:30:16.696Z,95.12
2023-03-19T22:32:43.098Z,95.58
2023-03-19T22:35:09.587Z,97.00
2023-03-19T22:37:36.032Z,97.64
2023-03-19T22:40:02.356Z,96.82
2023-03-19T22:42:28.717Z,97.31
2023-03-19T22:44:55.065Z,95.52
2023-03-19T22:47:21.815Z,95.05
2023-03-19T22:49:48.143Z,94.78
2023-03-19T22:52:14.536Z,93.20
2023-03-19T22:54:41.182Z,92.27
2023-03-19T22:57:07.535Z,91.85
2023-03-19T22:59:33.853Z,90.85
2023-03-19T23:02:00.196Z,91.42
2023-03-19T23:04:26.698Z,90.45
2023-03-19T23:06:53.116Z,89.36
2023-03-19T23:09:19.528Z,89.04
2023-03-19T23:11:45.859Z,89.18
2023-03-19T23:14:25.972Z,89.66
2023-03-19T23:16:55.131Z,88.91
2023-03-19T23:19:21.462Z,90.49
2023-03-19T23:21:48.970Z,90.28
2023-03-19T23:24:15.281Z,91.09
2023-03-19T23:26:41.690Z,91.05
2023-03-19T23:29:08.083Z,90.77
2023-03-19T23:31:34.535Z,89.25
2023-03-19T23:34:00.861Z,90.05
2023-03-19T23:36:27.881Z,90.45
2023-03-19T23:38:54.187Z,88.74
2023-03-19T23:41:20.766Z,88.27
2023-03-19T23:43:47.465Z,87.79
2023-03-19T23:46:14.192Z,87.54
2023-03-19T23:48:40.575Z,86.49
2023-03-19T23:51:07.443Z,87.00
2023-03-19T23:53:33.798Z,87.83
2023-03-19T23:56:00.194Z,87.31
2023-03-19T23:58:26.502Z,87.46
